sensor_id;sensor_type;location;lat;lon;timestamp;pressure;altitude;pressure_sealevel;temperature;humidity
31299;BME280;17927;52.350;13.402;2023-02-04T00:00:21;101773.25;;;8.50;56.16
31299;BME280;17927;52.350;13.402;2023-02-04T00:02:47;101781.25;;;8.52;56.41
31299;BME280;17927;52.350;13.402;2023-02-04T00:05:13;101799.16;;;8.53;56.13
31299;BME280;17927;52.350;13.402;2023-02-04T00:07:40;101804.41;;;8.55;56.31
31299;BME280;17927;52.350;13.402;2023-02-04T00:10:05;101817.03;;;8.54;56.27
31299;BME280;17927;52.350;13.402;2023-02-04T00:12:31;101829.63;;;8.53;56.50
31299;BME280;17927;52.350;13.402;2023-02-04T00:14:56;101835.78;;;8.56;56.29
31299;BME280;17927;52.350;13.402;2023-02-04T00:17:22;101842.88;;;8.57;56.11
31299;BME280;17927;52.350;13.402;2023-02-04T00:19:47;101844.81;;;8.55;56.52
31299;BME280;17927;52.350;13.402;2023-02-04T00:22:12;101864.84;;;8.50;56.43
31299;BME280;17927;52.350;13.402;2023-02-04T00:24:37;101872.19;;;8.48;56.67
31299;BME280;17927;52.350;13.402;2023-02-04T00:27:04;101883.00;;;8.47;56.82
31299;BME280;17927;52.350;13.402;2023-02-04T00:29:29;101889.34;;;8.46;56.64
31299;BME280;17927;52.350;13.402;2023-02-04T00:31:55;101893.88;;;8.45;56.42
31299;BME280;17927;52.350;13.402;2023-02-04T00:34:20;101894.94;;;8.43;56.38
31299;BME280;17927;52.350;13.402;2023-02-04T00:36:46;101896.19;;;8.37;56.72
31299;BME280;17927;52.350;13.402;2023-02-04T00:39:11;101899.00;;;8.35;56.95
31299;BME280;17927;52.350;13.402;2023-02-04T00:41:36;101916.25;;;8.33;56.80
31299;BME280;17927;52.350;13.402;2023-02-04T00:44:02;101928.94;;;8.31;56.71
31299;BME280;17927;52.350;13.402;2023-02-04T00:46:27;101944.22;;;8.30;56.51
31299;BME280;17927;52.350;13.402;2023-02-04T00:48:52;101953.16;;;8.31;56.84
31299;BME280;17927;52.350;13.402;2023-02-04T00:51:17;101970.28;;;8.30;56.78
31299;BME280;17927;52.350;13.402;2023-02-04T00:53:43;101966.72;;;8.29;56.69
31299;BME280;17927;52.350;13.402;2023-02-04T00:56:08;101989.97;;;8.30;56.92
31299;BME280;17927;52.350;13.402;2023-02-04T00:58:33;101998.06;;;8.30;56.85
31299;BME280;17927;52.350;13.402;2023-02-04T01:00:59;102026.91;;;8.28;57.07
31299;BME280;17927;52.350;13.402;2023-02-04T01:03:24;102014.31;;;8.29;56.76
31299;BME280;17927;52.350;13.402;2023-02-04T01:05:49;102038.75;;;8.26;56.68
31299;BME280;17927;52.350;13.402;2023-02-04T01:08:14;102037.19;;;8.21;56.45
31299;BME280;17927;52.350;13.402;2023-02-04T01:10:40;102050.28;;;8.13;56.48
31299;BME280;17927;52.350;13.402;2023-02-04T01:13:06;102057.75;;;8.08;56.37
31299;BME280;17927;52.350;13.402;2023-02-04T01:15:33;102059.88;;;8.03;56.07
31299;BME280;17927;52.350;13.402;2023-02-04T01:17:58;102064.56;;;7.99;56.22
31299;BME280;17927;52.350;13.402;2023-02-04T01:20:23;102077.47;;;7.94;56.04
31299;BME280;17927;52.350;13.402;2023-02-04T01:22:48;102075.03;;;7.89;56.17
31299;BME280;17927;52.350;13.402;2023-02-04T01:25:14;102086.09;;;7.85;56.10
31299;BME280;17927;52.350;13.402;2023-02-04T01:27:39;102096.16;;;7.81;56.06
31299;BME280;17927;52.350;13.402;2023-02-04T01:30:05;102113.34;;;7.78;56.04
31299;BME280;17927;52.350;13.402;2023-02-04T01:32:30;102126.13;;;7.75;55.71
31299;BME280;17927;52.350;13.402;2023-02-04T01:34:55;102144.28;;;7.71;55.91
31299;BME280;17927;52.350;13.402;2023-02-04T01:37:20;102137.25;;;7.69;56.06
31299;BME280;17927;52.350;13.402;2023-02-04T01:39:46;102135.69;;;7.65;55.90
31299;BME280;17927;52.350;13.402;2023-02-04T01:42:11;102151.91;;;7.63;55.53
31299;BME280;17927;52.350;13.402;2023-02-04T01:44:36;102155.75;;;7.59;55.67
31299;BME280;17927;52.350;13.402;2023-02-04T01:47:03;102165.72;;;7.57;55.87
31299;BME280;17927;52.350;13.402;2023-02-04T01:49:28;102176.56;;;7.55;56.01
31299;BME280;17927;52.350;13.402;2023-02-04T01:51:54;102184.81;;;7.52;55.71
31299;BME280;17927;52.350;13.402;2023-02-04T01:54:19;102190.28;;;7.51;55.55
31299;BME280;17927;52.350;13.402;2023-02-04T01:56:46;102196.59;;;7.50;55.44
31299;BME280;17927;52.350;13.402;2023-02-04T01:59:15;102203.88;;;7.47;55.88
31299;BME280;17927;52.350;13.402;2023-02-04T02:01:49;102220.22;;;7.44;55.59
31299;BME280;17927;52.350;13.402;2023-02-04T02:04:20;102219.50;;;7.41;55.72
31299;BME280;17927;52.350;13.402;2023-02-04T02:06:52;102236.78;;;7.37;55.78
31299;BME280;17927;52.350;13.402;2023-02-04T02:09:18;102233.38;;;7.33;55.95
31299;BME280;17927;52.350;13.402;2023-02-04T02:11:43;102246.91;;;7.31;55.91
31299;BME280;17927;52.350;13.402;2023-02-04T02:14:09;102252.47;;;7.28;55.85
31299;BME280;17927;52.350;13.402;2023-02-04T02:16:34;102257.06;;;7.26;55.91
31299;BME280;17927;52.350;13.402;2023-02-04T02:19:00;102270.50;;;7.26;55.58
31299;BME280;17927;52.350;13.402;2023-02-04T02:21:39;102274.31;;;7.22;55.88
31299;BME280;17927;52.350;13.402;2023-02-04T02:24:26;102289.72;;;7.19;55.81
31299;BME280;17927;52.350;13.402;2023-02-04T02:26:53;102291.63;;;7.16;56.06
31299;BME280;17927;52.350;13.402;2023-02-04T02:29:19;102295.19;;;7.17;55.69
31299;BME280;17927;52.350;13.402;2023-02-04T02:31:44;102306.91;;;7.16;55.68
31299;BME280;17927;52.350;13.402;2023-02-04T02:34:10;102306.22;;;7.12;55.72
31299;BME280;17927;52.350;13.402;2023-02-04T02:36:35;102306.25;;;7.11;55.74
31299;BME280;17927;52.350;13.402;2023-02-04T02:39:00;102317.97;;;7.10;55.94
31299;BME280;17927;52.350;13.402;2023-02-04T02:41:26;102318.22;;;7.05;55.78
31299;BME280;17927;52.350;13.402;2023-02-04T02:43:51;102319.25;;;7.03;55.71
31299;BME280;17927;52.350;13.402;2023-02-04T02:46:17;102330.06;;;7.01;55.80
31299;BME280;17927;52.350;13.402;2023-02-04T02:48:42;102331.91;;;7.00;55.97
31299;BME280;17927;52.350;13.402;2023-02-04T02:51:07;102342.75;;;6.99;55.69
31299;BME280;17927;52.350;13.402;2023-02-04T02:53:32;102355.38;;;6.97;55.99
31299;BME280;17927;52.350;13.402;2023-02-04T02:55:58;102364.31;;;6.97;56.07
31299;BME280;17927;52.350;13.402;2023-02-04T02:58:28;102369.69;;;6.97;55.91
31299;BME280;17927;52.350;13.402;2023-02-04T03:00:57;102380.38;;;6.99;56.04
31299;BME280;17927;52.350;13.402;2023-02-04T03:03:31;102377.59;;;7.00;56.23
31299;BME280;17927;52.350;13.402;2023-02-04T03:06:01;102391.13;;;6.99;55.72
31299;BME280;17927;52.350;13.402;2023-02-04T03:08:28;102392.13;;;6.96;56.05
31299;BME280;17927;52.350;13.402;2023-02-04T03:10:54;102405.66;;;6.95;55.81
31299;BME280;17927;52.350;13.402;2023-02-04T03:13:19;102409.28;;;6.94;55.72
31299;BME280;17927;52.350;13.402;2023-02-04T03:15:46;102418.28;;;6.93;55.77
31299;BME280;17927;52.350;13.402;2023-02-04T03:18:13;102422.88;;;6.91;56.01
31299;BME280;17927;52.350;13.402;2023-02-04T03:20:40;102422.97;;;6.89;55.87
31299;BME280;17927;52.350;13.402;2023-02-04T03:23:06;102430.22;;;6.87;55.79
31299;BME280;17927;52.350;13.402;2023-02-04T03:25:32;102441.13;;;6.84;55.88
31299;BME280;17927;52.350;13.402;2023-02-04T03:27:58;102451.00;;;6.83;56.16
31299;BME280;17927;52.350;13.402;2023-02-04T03:30:24;102464.50;;;6.82;56.00
31299;BME280;17927;52.350;13.402;2023-02-04T03:32:49;102459.28;;;6.79;55.85
31299;BME280;17927;52.350;13.402;2023-02-04T03:35:15;102468.38;;;6.76;56.03
31299;BME280;17927;52.350;13.402;2023-02-04T03:37:40;102472.94;;;6.74;55.88
31299;BME280;17927;52.350;13.402;2023-02-04T03:40:06;102484.72;;;6.72;56.10
31299;BME280;17927;52.350;13.402;2023-02-04T03:42:31;102497.34;;;6.69;55.83
31299;BME280;17927;52.350;13.402;2023-02-04T03:44:56;102507.28;;;6.67;56.05
31299;BME280;17927;52.350;13.402;2023-02-04T03:47:22;102516.38;;;6.65;56.08
31299;BME280;17927;52.350;13.402;2023-02-04T03:49:47;102533.50;;;6.62;55.71
31299;BME280;17927;52.350;13.402;2023-02-04T03:52:12;102537.28;;;6.58;55.98
31299;BME280;17927;52.350;13.402;2023-02-04T03:54:37;102544.53;;;6.56;56.28
31299;BME280;17927;52.350;13.402;2023-02-04T03:57:03;102551.81;;;6.54;56.04
31299;BME280;17927;52.350;13.402;2023-02-04T03:59:28;102553.69;;;6.52;55.97
31299;BME280;17927;52.350;13.402;2023-02-04T04:01:53;102563.63;;;6.50;56.13
31299;BME280;17927;52.350;13.402;2023-02-04T04:04:18;102568.19;;;6.48;56.23
31299;BME280;17927;52.350;13.402;2023-02-04T04:06:44;102579.00;;;6.46;56.24
31299;BME280;17927;52.350;13.402;2023-02-04T04:09:09;102574.66;;;6.44;56.18
31299;BME280;17927;52.350;13.402;2023-02-04T04:11:34;102586.34;;;6.43;56.20
31299;BME280;17927;52.350;13.402;2023-02-04T04:13:59;102590.03;;;6.40;56.14
31299;BME280;17927;52.350;13.402;2023-02-04T04:16:25;102597.34;;;6.36;56.23
31299;BME280;17927;52.350;13.402;2023-02-04T04:18:51;102593.72;;;6.37;56.04
31299;BME280;17927;52.350;13.402;2023-02-04T04:21:16;102611.72;;;6.35;56.16
31299;BME280;17927;52.350;13.402;2023-02-04T04:23:41;102615.34;;;6.34;56.18
31299;BME280;17927;52.350;13.402;2023-02-04T04:26:06;102613.59;;;6.33;56.33
31299;BME280;17927;52.350;13.402;2023-02-04T04:28:32;102636.94;;;6.31;56.12
31299;BME280;17927;52.350;13.402;2023-02-04T04:30:57;102637.03;;;6.30;56.26
31299;BME280;17927;52.350;13.402;2023-02-04T04:33:22;102644.22;;;6.29;56.64
31299;BME280;17927;52.350;13.402;2023-02-04T04:35:47;102647.84;;;6.28;56.33
31299;BME280;17927;52.350;13.402;2023-02-04T04:38:12;102657.69;;;6.28;56.67
31299;BME280;17927;52.350;13.402;2023-02-04T04:40:38;102664.91;;;6.27;56.46
31299;BME280;17927;52.350;13.402;2023-02-04T04:43:03;102673.81;;;6.28;56.62
31299;BME280;17927;52.350;13.402;2023-02-04T04:45:28;102674.75;;;6.27;56.89
31299;BME280;17927;52.350;13.402;2023-02-04T04:47:53;102677.38;;;6.28;56.84
31299;BME280;17927;52.350;13.402;2023-02-04T04:50:19;102682.75;;;6.28;57.04
31299;BME280;17927;52.350;13.402;2023-02-04T04:52:44;102689.88;;;6.29;56.97
31299;BME280;17927;52.350;13.402;2023-02-04T04:55:09;102705.03;;;6.30;57.19
31299;BME280;17927;52.350;13.402;2023-02-04T04:57:35;102706.75;;;6.31;57.30
31299;BME280;17927;52.350;13.402;2023-02-04T05:00:00;102719.22;;;6.32;57.01
31299;BME280;17927;52.350;13.402;2023-02-04T05:02:25;102715.59;;;6.33;57.18
31299;BME280;17927;52.350;13.402;2023-02-04T05:04:50;102728.09;;;6.34;57.25
31299;BME280;17927;52.350;13.402;2023-02-04T05:07:16;102729.97;;;6.32;56.94
31299;BME280;17927;52.350;13.402;2023-02-04T05:09:41;102734.47;;;6.32;56.95
31299;BME280;17927;52.350;13.402;2023-02-04T05:12:06;102731.00;;;6.30;56.83
31299;BME280;17927;52.350;13.402;2023-02-04T05:14:32;102738.22;;;6.28;56.95
31299;BME280;17927;52.350;13.402;2023-02-04T05:16:57;102741.84;;;6.27;57.09
31299;BME280;17927;52.350;13.402;2023-02-04T05:19:22;102742.88;;;6.24;56.75
31299;BME280;17927;52.350;13.402;2023-02-04T05:21:47;102745.63;;;6.22;56.95
31299;BME280;17927;52.350;13.402;2023-02-04T05:24:13;102754.75;;;6.18;56.73
31299;BME280;17927;52.350;13.402;2023-02-04T05:26:38;102768.22;;;6.17;56.91
31299;BME280;17927;52.350;13.402;2023-02-04T05:29:03;102779.09;;;6.14;56.76
31299;BME280;17927;52.350;13.402;2023-02-04T05:31:29;102773.91;;;6.09;56.78
31299;BME280;17927;52.350;13.402;2023-02-04T05:33:54;102782.03;;;6.07;56.99
31299;BME280;17927;52.350;13.402;2023-02-04T05:36:20;102783.03;;;6.05;57.20
31299;BME280;17927;52.350;13.402;2023-02-04T05:38:45;102791.13;;;6.03;57.03
31299;BME280;17927;52.350;13.402;2023-02-04T05:41:10;102790.31;;;6.01;57.19
31299;BME280;17927;52.350;13.402;2023-02-04T05:43:35;102796.63;;;6.00;57.20
31299;BME280;17927;52.350;13.402;2023-02-04T05:46:01;102799.34;;;5.99;57.21
31299;BME280;17927;52.350;13.402;2023-02-04T05:48:26;102803.91;;;5.97;56.87
31299;BME280;17927;52.350;13.402;2023-02-04T05:50:52;102810.28;;;5.94;57.35
31299;BME280;17927;52.350;13.402;2023-02-04T05:53:17;102815.63;;;5.94;57.17
31299;BME280;17927;52.350;13.402;2023-02-04T05:55:42;102832.66;;;5.93;56.94
31299;BME280;17927;52.350;13.402;2023-02-04T05:58:07;102837.22;;;5.91;57.09
31299;BME280;17927;52.350;13.402;2023-02-04T06:00:33;102839.09;;;5.89;57.09
31299;BME280;17927;52.350;13.402;2023-02-04T06:02:58;102847.22;;;5.87;57.08
31299;BME280;17927;52.350;13.402;2023-02-04T06:05:23;102850.88;;;5.85;57.23
31299;BME280;17927;52.350;13.402;2023-02-04T06:07:49;102850.09;;;5.83;57.41
31299;BME280;17927;52.350;13.402;2023-02-04T06:10:14;102866.19;;;5.83;57.16
31299;BME280;17927;52.350;13.402;2023-02-04T06:12:39;102871.66;;;5.79;57.31
31299;BME280;17927;52.350;13.402;2023-02-04T06:15:05;102869.09;;;5.76;57.24
31299;BME280;17927;52.350;13.402;2023-02-04T06:17:31;102881.75;;;5.73;57.16
31299;BME280;17927;52.350;13.402;2023-02-04T06:19:56;102892.59;;;5.70;57.17
31299;BME280;17927;52.350;13.402;2023-02-04T06:22:21;102894.44;;;5.68;56.98
31299;BME280;17927;52.350;13.402;2023-02-04T06:24:48;102895.38;;;5.67;57.36
31299;BME280;17927;52.350;13.402;2023-02-04T06:27:14;102900.81;;;5.65;57.30
31299;BME280;17927;52.350;13.402;2023-02-04T06:29:42;102903.53;;;5.63;57.22
31299;BME280;17927;52.350;13.402;2023-02-04T06:32:07;102916.13;;;5.61;57.50
31299;BME280;17927;52.350;13.402;2023-02-04T06:34:33;102918.88;;;5.60;57.50
31299;BME280;17927;52.350;13.402;2023-02-04T06:36:58;102919.81;;;5.59;57.59
31299;BME280;17927;52.350;13.402;2023-02-04T06:39:23;102922.56;;;5.57;57.24
31299;BME280;17927;52.350;13.402;2023-02-04T06:41:48;102925.16;;;5.59;57.56
31299;BME280;17927;52.350;13.402;2023-02-04T06:44:14;102921.47;;;5.63;57.61
31299;BME280;17927;52.350;13.402;2023-02-04T06:46:39;102924.03;;;5.66;57.39
31299;BME280;17927;52.350;13.402;2023-02-04T06:49:04;102925.72;;;5.69;57.31
31299;BME280;17927;52.350;13.402;2023-02-04T06:51:29;102926.56;;;5.69;57.44
31299;BME280;17927;52.350;13.402;2023-02-04T06:53:55;102933.75;;;5.69;57.10
31299;BME280;17927;52.350;13.402;2023-02-04T06:56:20;102921.28;;;5.68;56.98
31299;BME280;17927;52.350;13.402;2023-02-04T06:58:45;102935.56;;;5.68;57.21
31299;BME280;17927;52.350;13.402;2023-02-04T07:01:10;102932.91;;;5.68;57.27
31299;BME280;17927;52.350;13.402;2023-02-04T07:03:36;102932.91;;;5.68;57.27
31299;BME280;17927;52.350;13.402;2023-02-04T07:06:01;102926.63;;;5.68;57.08
31299;BME280;17927;52.350;13.402;2023-02-04T07:08:26;102940.88;;;5.70;57.19
31299;BME280;17927;52.350;13.402;2023-02-04T07:10:52;102932.75;;;5.71;57.34
31299;BME280;17927;52.350;13.402;2023-02-04T07:13:18;102931.72;;;5.75;57.43
31299;BME280;17927;52.350;13.402;2023-02-04T07:15:43;102933.38;;;5.78;57.52
31299;BME280;17927;52.350;13.402;2023-02-04T07:18:08;102937.72;;;5.82;57.47
31299;BME280;17927;52.350;13.402;2023-02-04T07:20:33;102942.03;;;5.86;57.45
31299;BME280;17927;52.350;13.402;2023-02-04T07:22:59;102953.59;;;5.88;57.67
31299;BME280;17927;52.350;13.402;2023-02-04T07:25:24;102951.66;;;5.92;57.59
31299;BME280;17927;52.350;13.402;2023-02-04T07:27:50;102961.34;;;5.96;57.71
31299;BME280;17927;52.350;13.402;2023-02-04T07:30:15;102970.19;;;6.00;57.88
31299;BME280;17927;52.350;13.402;2023-02-04T07:32:40;102970.00;;;6.04;57.71
31299;BME280;17927;52.350;13.402;2023-02-04T07:35:06;102982.38;;;6.08;58.15
31299;BME280;17927;52.350;13.402;2023-02-04T07:37:31;102977.72;;;6.14;58.03
31299;BME280;17927;52.350;13.402;2023-02-04T07:39:56;102989.13;;;6.19;58.33
31299;BME280;17927;52.350;13.402;2023-02-04T07:42:22;102994.31;;;6.23;58.15
31299;BME280;17927;52.350;13.402;2023-02-04T07:44:47;102998.59;;;6.29;57.93
31299;BME280;17927;52.350;13.402;2023-02-04T07:47:12;102993.03;;;6.34;58.18
31299;BME280;17927;52.350;13.402;2023-02-04T07:49:38;103003.50;;;6.40;57.85
31299;BME280;17927;52.350;13.402;2023-02-04T07:52:03;103022.09;;;6.46;58.25
31299;BME280;17927;52.350;13.402;2023-02-04T07:54:28;103019.22;;;6.51;57.96
31299;BME280;17927;52.350;13.402;2023-02-04T07:56:53;103032.41;;;6.57;57.98
31299;BME280;17927;52.350;13.402;2023-02-04T07:59:19;103025.00;;;6.62;58.08
31299;BME280;17927;52.350;13.402;2023-02-04T08:01:44;103033.78;;;6.67;58.27
31299;BME280;17927;52.350;13.402;2023-02-04T08:04:09;103039.88;;;6.71;57.78
31299;BME280;17927;52.350;13.402;2023-02-04T08:06:35;103044.09;;;6.78;58.02
31299;BME280;17927;52.350;13.402;2023-02-04T08:09:00;103048.41;;;6.82;58.19
31299;BME280;17927;52.350;13.402;2023-02-04T08:11:25;103058.03;;;6.88;58.26
31299;BME280;17927;52.350;13.402;2023-02-04T08:13:51;103048.91;;;6.92;58.07
31299;BME280;17927;52.350;13.402;2023-02-04T08:16:16;103050.47;;;6.98;58.01
31299;BME280;17927;52.350;13.402;2023-02-04T08:18:41;103053.81;;;7.03;57.93
31299;BME280;17927;52.350;13.402;2023-02-04T08:21:06;103057.28;;;7.07;57.98
31299;BME280;17927;52.350;13.402;2023-02-04T08:23:32;103065.91;;;7.15;58.02
31299;BME280;17927;52.350;13.402;2023-02-04T08:25:58;103062.97;;;7.21;58.17
31299;BME280;17927;52.350;13.402;2023-02-04T08:28:23;103074.34;;;7.28;57.89
31299;BME280;17927;52.350;13.402;2023-02-04T08:30:49;103076.81;;;7.32;57.94
31299;BME280;17927;52.350;13.402;2023-02-04T08:33:14;103084.63;;;7.39;58.09
31299;BME280;17927;52.350;13.402;2023-02-04T08:35:39;103093.38;;;7.44;57.94
31299;BME280;17927;52.350;13.402;2023-02-04T08:38:04;103088.69;;;7.49;57.82
31299;BME280;17927;52.350;13.402;2023-02-04T08:40:30;103094.75;;;7.54;57.86
31299;BME280;17927;52.350;13.402;2023-02-04T08:42:55;103083.78;;;7.59;58.06
31299;BME280;17927;52.350;13.402;2023-02-04T08:45:20;103085.31;;;7.65;57.87
31299;BME280;17927;52.350;13.402;2023-02-04T08:47:45;103099.47;;;7.70;57.74
31299;BME280;17927;52.350;13.402;2023-02-04T08:50:11;103090.38;;;7.72;57.83
31299;BME280;17927;52.350;13.402;2023-02-04T08:52:36;103100.13;;;7.75;57.52
31299;BME280;17927;52.350;13.402;2023-02-04T08:55:01;103100.94;;;7.77;57.46
31299;BME280;17927;52.350;13.402;2023-02-04T08:57:27;103090.97;;;7.79;57.59
31299;BME280;17927;52.350;13.402;2023-02-04T08:59:52;103095.28;;;7.83;57.63
31299;BME280;17927;52.350;13.402;2023-02-04T09:02:17;103100.50;;;7.86;57.53
31299;BME280;17927;52.350;13.402;2023-02-04T09:04:42;103108.47;;;7.89;57.50
31299;BME280;17927;52.350;13.402;2023-02-04T09:07:07;103107.31;;;7.95;57.39
31299;BME280;17927;52.350;13.402;2023-02-04T09:09:33;103111.56;;;8.01;57.22
31299;BME280;17927;52.350;13.402;2023-02-04T09:11:58;103118.53;;;8.05;56.93
31299;BME280;17927;52.350;13.402;2023-02-04T09:14:25;103121.91;;;8.10;57.30
31299;BME280;17927;52.350;13.402;2023-02-04T09:16:50;103125.41;;;8.12;57.09
31299;BME280;17927;52.350;13.402;2023-02-04T09:19:16;103131.53;;;8.16;56.79
31299;BME280;17927;52.350;13.402;2023-02-04T09:21:47;103138.44;;;8.21;56.91
31299;BME280;17927;52.350;13.402;2023-02-04T09:24:13;103131.91;;;8.27;56.94
31299;BME280;17927;52.350;13.402;2023-02-04T09:26:38;103138.88;;;8.33;56.64
31299;BME280;17927;52.350;13.402;2023-02-04T09:29:03;103144.09;;;8.36;56.53
31299;BME280;17927;52.350;13.402;2023-02-04T09:31:28;103146.50;;;8.42;56.76
31299;BME280;17927;52.350;13.402;2023-02-04T09:33:54;103153.38;;;8.49;56.91
31299;BME280;17927;52.350;13.402;2023-02-04T09:36:19;103162.00;;;8.58;57.01
31299;BME280;17927;52.350;13.402;2023-02-04T09:38:44;103161.56;;;8.67;56.71
31299;BME280;17927;52.350;13.402;2023-02-04T09:41:10;103170.22;;;8.74;56.69
31299;BME280;17927;52.350;13.402;2023-02-04T09:43:41;103172.56;;;8.81;56.54
31299;BME280;17927;52.350;13.402;2023-02-04T09:46:21;103177.78;;;8.86;56.49
31299;BME280;17927;52.350;13.402;2023-02-04T09:48:47;103173.16;;;8.88;56.26
31299;BME280;17927;52.350;13.402;2023-02-04T09:51:17;103177.53;;;8.91;55.76
31299;BME280;17927;52.350;13.402;2023-02-04T09:53:43;103184.69;;;8.92;55.54
31299;BME280;17927;52.350;13.402;2023-02-04T09:56:10;103183.78;;;8.91;55.25
31299;BME280;17927;52.350;13.402;2023-02-04T09:58:35;103182.78;;;8.94;55.72
31299;BME280;17927;52.350;13.402;2023-02-04T10:01:10;103188.81;;;8.99;55.44
31299;BME280;17927;52.350;13.402;2023-02-04T10:03:39;103187.03;;;8.99;55.29
31299;BME280;17927;52.350;13.402;2023-02-04T10:06:10;103192.28;;;9.03;55.04
31299;BME280;17927;52.350;13.402;2023-02-04T10:08:35;103194.97;;;9.03;54.89
31299;BME280;17927;52.350;13.402;2023-02-04T10:11:00;103187.75;;;9.03;54.99
31299;BME280;17927;52.350;13.402;2023-02-04T10:13:32;103194.75;;;9.07;54.74
31299;BME280;17927;52.350;13.402;2023-02-04T10:15:57;103197.31;;;9.10;54.96
31299;BME280;17927;52.350;13.402;2023-02-04T10:18:30;103192.69;;;9.12;54.78
31299;BME280;17927;52.350;13.402;2023-02-04T10:21:07;103197.22;;;9.12;54.54
31299;BME280;17927;52.350;13.402;2023-02-04T10:23:35;103203.56;;;9.11;54.50
31299;BME280;17927;52.350;13.402;2023-02-04T10:26:02;103201.81;;;9.10;54.20
31299;BME280;17927;52.350;13.402;2023-02-04T10:28:37;103199.09;;;9.10;54.12
31299;BME280;17927;52.350;13.402;2023-02-04T10:31:04;103201.88;;;9.08;53.89
31299;BME280;17927;52.350;13.402;2023-02-04T10:33:32;103203.78;;;9.06;53.92
31299;BME280;17927;52.350;13.402;2023-02-04T10:35:59;103200.13;;;9.07;54.11
31299;BME280;17927;52.350;13.402;2023-02-04T10:38:25;103206.34;;;9.09;54.06
31299;BME280;17927;52.350;13.402;2023-02-04T10:41:04;103201.56;;;9.14;53.87
31299;BME280;17927;52.350;13.402;2023-02-04T10:43:30;103203.09;;;9.20;54.17
31299;BME280;17927;52.350;13.402;2023-02-04T10:46:00;103207.16;;;9.29;53.71
31299;BME280;17927;52.350;13.402;2023-02-04T10:48:26;103205.75;;;9.22;54.19
31299;BME280;17927;52.350;13.402;2023-02-04T10:50:55;103215.25;;;9.29;53.96
31299;BME280;17927;52.350;13.402;2023-02-04T10:53:22;103213.94;;;9.38;53.90
31299;BME280;17927;52.350;13.402;2023-02-04T10:56:17;103219.13;;;9.42;53.60
31299;BME280;17927;52.350;13.402;2023-02-04T10:58:43;103211.91;;;9.43;53.37
31299;BME280;17927;52.350;13.402;2023-02-04T11:01:13;103213.66;;;9.44;52.88
31299;BME280;17927;52.350;13.402;2023-02-04T11:03:40;103211.75;;;9.46;52.89
31299;BME280;17927;52.350;13.402;2023-02-04T11:06:10;103212.34;;;9.53;53.03
31299;BME280;17927;52.350;13.402;2023-02-04T11:08:37;103218.16;;;9.63;53.47
31299;BME280;17927;52.350;13.402;2023-02-04T11:11:11;103221.97;;;9.76;53.12
31299;BME280;17927;52.350;13.402;2023-02-04T11:13:41;103217.94;;;9.85;53.30
31299;BME280;17927;52.350;13.402;2023-02-04T11:16:23;103219.44;;;9.90;52.86
31299;BME280;17927;52.350;13.402;2023-02-04T11:18:52;103225.81;;;9.89;52.37
31299;BME280;17927;52.350;13.402;2023-02-04T11:26:35;103230.66;;;9.83;51.59
31299;BME280;17927;52.350;13.402;2023-02-04T11:31:28;103225.09;;;9.86;51.94
31299;BME280;17927;52.350;13.402;2023-02-04T11:34:10;103230.91;;;9.96;51.59
31299;BME280;17927;52.350;13.402;2023-02-04T11:37:00;103235.16;;;10.00;51.70
31299;BME280;17927;52.350;13.402;2023-02-04T11:39:46;103235.56;;;9.92;52.23
31299;BME280;17927;52.350;13.402;2023-02-04T11:42:22;103237.00;;;9.99;51.88
31299;BME280;17927;52.350;13.402;2023-02-04T11:44:54;103252.88;;;10.05;51.28
31299;BME280;17927;52.350;13.402;2023-02-04T11:47:21;103248.13;;;10.11;51.09
31299;BME280;17927;52.350;13.402;2023-02-04T11:49:57;103248.84;;;10.14;50.58
31299;BME280;17927;52.350;13.402;2023-02-04T11:52:24;103255.03;;;10.16;50.58
31299;BME280;17927;52.350;13.402;2023-02-04T11:55:01;103248.63;;;10.19;50.38
31299;BME280;17927;52.350;13.402;2023-02-04T11:57:27;103252.19;;;10.19;50.34
31299;BME280;17927;52.350;13.402;2023-02-04T11:59:53;103245.69;;;10.24;50.15
31299;BME280;17927;52.350;13.402;2023-02-04T12:02:22;103253.69;;;10.25;50.12
31299;BME280;17927;52.350;13.402;2023-02-04T12:05:07;103245.53;;;10.27;49.61
31299;BME280;17927;52.350;13.402;2023-02-04T12:07:33;103248.28;;;10.25;49.82
31299;BME280;17927;52.350;13.402;2023-02-04T12:10:13;103246.47;;;10.26;49.38
31299;BME280;17927;52.350;13.402;2023-02-04T12:12:44;103251.13;;;10.22;49.11
31299;BME280;17927;52.350;13.402;2023-02-04T12:15:20;103247.66;;;10.20;49.04
31299;BME280;17927;52.350;13.402;2023-02-04T12:17:59;103253.13;;;10.18;49.12
31299;BME280;17927;52.350;13.402;2023-02-04T12:20:25;103254.97;;;10.18;49.64
31299;BME280;17927;52.350;13.402;2023-02-04T12:22:51;103256.88;;;10.16;49.05
31299;BME280;17927;52.350;13.402;2023-02-04T12:25:16;103262.34;;;10.14;49.04
31299;BME280;17927;52.350;13.402;2023-02-04T12:27:43;103261.63;;;10.11;48.84
31299;BME280;17927;52.350;13.402;2023-02-04T12:30:09;103268.13;;;10.06;48.25
31299;BME280;17927;52.350;13.402;2023-02-04T12:32:35;103268.47;;;10.00;48.32
31299;BME280;17927;52.350;13.402;2023-02-04T12:35:00;103274.03;;;9.97;48.27
31299;BME280;17927;52.350;13.402;2023-02-04T12:37:25;103282.41;;;9.91;48.20
31299;BME280;17927;52.350;13.402;2023-02-04T12:39:51;103284.50;;;9.86;48.01
31299;BME280;17927;52.350;13.402;2023-02-04T12:42:16;103278.53;;;9.79;47.87
31299;BME280;17927;52.350;13.402;2023-02-04T12:44:41;103278.00;;;9.71;47.92
31299;BME280;17927;52.350;13.402;2023-02-04T12:47:06;103276.41;;;9.67;48.15
31299;BME280;17927;52.350;13.402;2023-02-04T12:49:32;103279.19;;;9.65;48.20
31299;BME280;17927;52.350;13.402;2023-02-04T12:51:57;103279.69;;;9.73;49.01
31299;BME280;17927;52.350;13.402;2023-02-04T12:54:26;103274.66;;;9.85;49.13